Terminal Aerodrome Forecast
Issued by NWS

Home | Current Version | Previous Version | Text Only | Print | Product List | Glossary On
Versions: 1 2 3 4 5 6 7 8 9 10 11 12 13 14 15 16 17 18 19 20
000
FTUS46 KLOX 080337 AAA
TAFBUR
TAF AMD
KBUR 080337Z 0804/0824 14006KT P6SM FEW015
     FM081300 VRB04KT 6SM -DZ BR BKN010 OVC020
     FM081700 16008KT P6SM SCT025
     FM081900 17010KT P6SM SCT025=

USA.gov is the U.S. government's official web portal to all federal, state and local government web resources and services.